sensor_id;sensor_type;location;lat;lon;timestamp;pressure;altitude;pressure_sealevel;temperature;humidity
64967;BME280;51710;38.732;-121.358;2022-09-12T00:00:49;100819.72;;;34.47;23.04
64967;BME280;51710;38.732;-121.358;2022-09-12T00:03:16;100820.31;;;34.44;22.89
64967;BME280;51710;38.732;-121.358;2022-09-12T00:05:43;100822.56;;;34.42;23.66
64967;BME280;51710;38.732;-121.358;2022-09-12T00:08:10;100821.56;;;34.38;23.12
64967;BME280;51710;38.732;-121.358;2022-09-12T00:10:39;100828.63;;;34.30;23.29
64967;BME280;51710;38.732;-121.358;2022-09-12T00:13:07;100818.84;;;34.24;23.15
64967;BME280;51710;38.732;-121.358;2022-09-12T00:15:38;100823.53;;;34.24;23.13
64967;BME280;51710;38.732;-121.358;2022-09-12T00:18:07;100817.75;;;34.12;23.70
64967;BME280;51710;38.732;-121.358;2022-09-12T00:20:34;100809.16;;;33.99;23.79
64967;BME280;51710;38.732;-121.358;2022-09-12T00:23:00;100818.69;;;33.93;23.31
64967;BME280;51710;38.732;-121.358;2022-09-12T00:25:26;100817.63;;;33.89;24.45
64967;BME280;51710;38.732;-121.358;2022-09-12T00:27:55;100809.97;;;33.86;24.22
64967;BME280;51710;38.732;-121.358;2022-09-12T00:30:22;100810.47;;;33.88;23.62
64967;BME280;51710;38.732;-121.358;2022-09-12T00:32:48;100811.81;;;33.91;24.53
64967;BME280;51710;38.732;-121.358;2022-09-12T00:35:16;100806.47;;;33.81;25.05
64967;BME280;51710;38.732;-121.358;2022-09-12T00:37:42;100809.16;;;33.59;25.31
64967;BME280;51710;38.732;-121.358;2022-09-12T00:40:09;100809.75;;;33.42;24.99
64967;BME280;51710;38.732;-121.358;2022-09-12T00:42:36;100814.66;;;33.32;25.36
64967;BME280;51710;38.732;-121.358;2022-09-12T00:45:03;100811.19;;;33.26;24.80
64967;BME280;51710;38.732;-121.358;2022-09-12T00:47:30;100810.97;;;33.23;25.63
64967;BME280;51710;38.732;-121.358;2022-09-12T00:50:08;100811.66;;;33.15;25.43
64967;BME280;51710;38.732;-121.358;2022-09-12T00:52:50;100806.22;;;33.10;26.13
64967;BME280;51710;38.732;-121.358;2022-09-12T00:55:24;100809.09;;;33.04;25.74
64967;BME280;51710;38.732;-121.358;2022-09-12T00:57:58;100802.75;;;33.04;26.41
64967;BME280;51710;38.732;-121.358;2022-09-12T01:00:26;100803.56;;;33.04;26.21
64967;BME280;51710;38.732;-121.358;2022-09-12T01:02:59;100801.84;;;33.09;26.58
64967;BME280;51710;38.732;-121.358;2022-09-12T01:05:32;100816.47;;;33.09;25.79
64967;BME280;51710;38.732;-121.358;2022-09-12T01:08:00;100804.09;;;33.07;25.96
64967;BME280;51710;38.732;-121.358;2022-09-12T01:10:28;100808.47;;;33.08;26.06
64967;BME280;51710;38.732;-121.358;2022-09-12T01:12:54;100807.47;;;33.03;25.92
64967;BME280;51710;38.732;-121.358;2022-09-12T01:15:22;100805.09;;;32.97;26.04
64967;BME280;51710;38.732;-121.358;2022-09-12T01:23:31;100815.38;;;32.91;25.44
64967;BME280;51710;38.732;-121.358;2022-09-12T01:32:14;100806.56;;;32.76;24.64
64967;BME280;51710;38.732;-121.358;2022-09-12T01:40:33;100809.19;;;32.67;24.76
64967;BME280;51710;38.732;-121.358;2022-09-12T01:46:20;100803.00;;;32.57;24.27
64967;BME280;51710;38.732;-121.358;2022-09-12T01:49:11;100807.03;;;32.46;24.67
64967;BME280;51710;38.732;-121.358;2022-09-12T01:57:48;100798.44;;;32.29;24.22
64967;BME280;51710;38.732;-121.358;2022-09-12T02:00:13;100794.41;;;32.21;24.17
64967;BME280;51710;38.732;-121.358;2022-09-12T02:03:07;100788.47;;;32.14;24.59
64967;BME280;51710;38.732;-121.358;2022-09-12T02:05:40;100783.94;;;32.05;24.94
64967;BME280;51710;38.732;-121.358;2022-09-12T02:08:18;100785.47;;;31.92;24.67
64967;BME280;51710;38.732;-121.358;2022-09-12T02:10:58;100797.13;;;31.84;24.80
64967;BME280;51710;38.732;-121.358;2022-09-12T02:16:11;100797.03;;;31.70;24.79
64967;BME280;51710;38.732;-121.358;2022-09-12T02:18:44;100797.94;;;31.66;24.95
64967;BME280;51710;38.732;-121.358;2022-09-12T02:21:12;100799.09;;;31.60;25.21
64967;BME280;51710;38.732;-121.358;2022-09-12T02:23:44;100795.03;;;31.52;25.15
64967;BME280;51710;38.732;-121.358;2022-09-12T02:26:14;100798.97;;;31.46;25.29
64967;BME280;51710;38.732;-121.358;2022-09-12T02:28:44;100798.22;;;31.41;25.08
64967;BME280;51710;38.732;-121.358;2022-09-12T02:38:53;100796.09;;;31.04;24.94
64967;BME280;51710;38.732;-121.358;2022-09-12T02:41:21;100807.47;;;30.98;24.96
64967;BME280;51710;38.732;-121.358;2022-09-12T02:43:49;100806.97;;;30.90;24.96
64967;BME280;51710;38.732;-121.358;2022-09-12T02:46:25;100800.97;;;30.83;24.73
64967;BME280;51710;38.732;-121.358;2022-09-12T02:48:54;100808.44;;;30.78;24.98
64967;BME280;51710;38.732;-121.358;2022-09-12T02:51:21;100804.88;;;30.72;24.95
64967;BME280;51710;38.732;-121.358;2022-09-12T02:53:48;100814.31;;;30.66;25.16
64967;BME280;51710;38.732;-121.358;2022-09-12T02:56:22;100817.94;;;30.57;25.41
64967;BME280;51710;38.732;-121.358;2022-09-12T02:58:51;100814.75;;;30.45;25.18
64967;BME280;51710;38.732;-121.358;2022-09-12T03:02:11;100814.00;;;30.34;25.26
64967;BME280;51710;38.732;-121.358;2022-09-12T03:07:50;100817.94;;;30.13;26.01
64967;BME280;51710;38.732;-121.358;2022-09-12T03:13:17;100815.81;;;30.05;26.44
64967;BME280;51710;38.732;-121.358;2022-09-12T03:21:21;100826.34;;;29.88;27.18
64967;BME280;51710;38.732;-121.358;2022-09-12T03:26:58;100828.03;;;29.79;27.55
64967;BME280;51710;38.732;-121.358;2022-09-12T03:29:26;100828.56;;;29.81;27.43
64967;BME280;51710;38.732;-121.358;2022-09-12T03:31:55;100828.84;;;29.79;27.96
64967;BME280;51710;38.732;-121.358;2022-09-12T03:34:23;100834.06;;;29.71;27.48
64967;BME280;51710;38.732;-121.358;2022-09-12T03:36:50;100832.16;;;29.61;28.03
64967;BME280;51710;38.732;-121.358;2022-09-12T03:39:17;100834.38;;;29.54;27.94
64967;BME280;51710;38.732;-121.358;2022-09-12T03:41:43;100841.81;;;29.49;28.52
64967;BME280;51710;38.732;-121.358;2022-09-12T03:44:10;100848.97;;;29.45;28.82
64967;BME280;51710;38.732;-121.358;2022-09-12T03:46:36;100848.69;;;29.41;28.58
64967;BME280;51710;38.732;-121.358;2022-09-12T03:49:03;100855.56;;;29.39;28.25
64967;BME280;51710;38.732;-121.358;2022-09-12T03:51:30;100853.91;;;29.38;28.67
64967;BME280;51710;38.732;-121.358;2022-09-12T03:53:57;100856.66;;;29.38;28.80
64967;BME280;51710;38.732;-121.358;2022-09-12T03:56:23;100860.22;;;29.38;28.74
64967;BME280;51710;38.732;-121.358;2022-09-12T03:58:49;100861.34;;;29.37;28.71
64967;BME280;51710;38.732;-121.358;2022-09-12T04:01:17;100862.44;;;29.36;29.01
64967;BME280;51710;38.732;-121.358;2022-09-12T04:03:46;100858.34;;;29.34;29.31
64967;BME280;51710;38.732;-121.358;2022-09-12T04:06:16;100862.16;;;29.33;29.33
64967;BME280;51710;38.732;-121.358;2022-09-12T04:08:46;100865.47;;;29.30;29.55
64967;BME280;51710;38.732;-121.358;2022-09-12T04:11:14;100863.56;;;29.25;28.95
64967;BME280;51710;38.732;-121.358;2022-09-12T04:13:42;100870.69;;;29.21;29.22
64967;BME280;51710;38.732;-121.358;2022-09-12T04:16:10;100863.84;;;29.14;29.40
64967;BME280;51710;38.732;-121.358;2022-09-12T04:18:37;100871.22;;;29.08;29.47
64967;BME280;51710;38.732;-121.358;2022-09-12T04:21:05;100866.00;;;29.02;29.52
64967;BME280;51710;38.732;-121.358;2022-09-12T04:23:32;100879.19;;;28.95;29.50
64967;BME280;51710;38.732;-121.358;2022-09-12T04:26:00;100870.13;;;28.89;29.55
64967;BME280;51710;38.732;-121.358;2022-09-12T04:28:28;100870.97;;;28.85;29.47
64967;BME280;51710;38.732;-121.358;2022-09-12T04:30:55;100866.56;;;28.78;29.99
64967;BME280;51710;38.732;-121.358;2022-09-12T04:33:21;100878.06;;;28.75;29.70
64967;BME280;51710;38.732;-121.358;2022-09-12T04:35:48;100876.72;;;28.68;29.95
64967;BME280;51710;38.732;-121.358;2022-09-12T04:38:15;100880.53;;;28.57;30.71
64967;BME280;51710;38.732;-121.358;2022-09-12T04:40:41;100879.38;;;28.38;30.94
64967;BME280;51710;38.732;-121.358;2022-09-12T04:43:07;100877.94;;;28.15;30.83
64967;BME280;51710;38.732;-121.358;2022-09-12T04:45:34;100881.97;;;27.98;31.43
64967;BME280;51710;38.732;-121.358;2022-09-12T04:48:00;100873.94;;;27.86;31.30
64967;BME280;51710;38.732;-121.358;2022-09-12T04:50:27;100881.03;;;27.82;30.99
64967;BME280;51710;38.732;-121.358;2022-09-12T04:52:54;100873.38;;;27.79;30.81
64967;BME280;51710;38.732;-121.358;2022-09-12T04:55:21;100874.19;;;27.80;30.62
64967;BME280;51710;38.732;-121.358;2022-09-12T04:57:47;100870.38;;;27.81;30.57
64967;BME280;51710;38.732;-121.358;2022-09-12T05:00:14;100873.09;;;27.81;30.46
64967;BME280;51710;38.732;-121.358;2022-09-12T05:02:40;100867.91;;;27.79;30.94
64967;BME280;51710;38.732;-121.358;2022-09-12T05:05:07;100872.22;;;27.70;31.18
64967;BME280;51710;38.732;-121.358;2022-09-12T05:07:34;100872.16;;;27.60;31.24
64967;BME280;51710;38.732;-121.358;2022-09-12T05:10:01;100871.06;;;27.56;31.11
64967;BME280;51710;38.732;-121.358;2022-09-12T05:12:29;100871.31;;;27.54;30.88
64967;BME280;51710;38.732;-121.358;2022-09-12T05:14:56;100869.38;;;27.55;31.02
64967;BME280;51710;38.732;-121.358;2022-09-12T05:17:22;100870.50;;;27.54;30.91
64967;BME280;51710;38.732;-121.358;2022-09-12T05:19:49;100867.72;;;27.49;31.04
64967;BME280;51710;38.732;-121.358;2022-09-12T05:22:15;100872.63;;;27.47;30.52
64967;BME280;51710;38.732;-121.358;2022-09-12T05:24:42;100871.50;;;27.43;30.75
64967;BME280;51710;38.732;-121.358;2022-09-12T05:27:09;100869.56;;;27.38;30.81
64967;BME280;51710;38.732;-121.358;2022-09-12T05:29:35;100864.06;;;27.33;30.63
64967;BME280;51710;38.732;-121.358;2022-09-12T05:32:02;100866.25;;;27.31;30.59
64967;BME280;51710;38.732;-121.358;2022-09-12T05:34:29;100870.06;;;27.30;30.76
64967;BME280;51710;38.732;-121.358;2022-09-12T05:36:55;100865.09;;;27.27;30.77
64967;BME280;51710;38.732;-121.358;2022-09-12T05:39:22;100860.97;;;27.25;30.46
64967;BME280;51710;38.732;-121.358;2022-09-12T05:41:49;100865.31;;;27.21;30.33
64967;BME280;51710;38.732;-121.358;2022-09-12T05:44:15;100868.84;;;27.16;30.10
64967;BME280;51710;38.732;-121.358;2022-09-12T05:46:43;100871.28;;;27.13;30.25
64967;BME280;51710;38.732;-121.358;2022-09-12T05:49:13;100863.59;;;27.10;30.35
64967;BME280;51710;38.732;-121.358;2022-09-12T05:51:42;100871.75;;;27.05;30.32
64967;BME280;51710;38.732;-121.358;2022-09-12T05:54:10;100859.69;;;27.01;30.07
64967;BME280;51710;38.732;-121.358;2022-09-12T05:56:39;100867.34;;;26.99;30.03
64967;BME280;51710;38.732;-121.358;2022-09-12T05:59:10;100864.84;;;26.97;30.29
64967;BME280;51710;38.732;-121.358;2022-09-12T06:01:37;100864.03;;;26.97;30.02
64967;BME280;51710;38.732;-121.358;2022-09-12T06:04:05;100867.84;;;26.96;30.07
64967;BME280;51710;38.732;-121.358;2022-09-12T06:06:36;100868.91;;;26.90;30.05
64967;BME280;51710;38.732;-121.358;2022-09-12T06:09:04;100873.25;;;26.86;30.03
64967;BME280;51710;38.732;-121.358;2022-09-12T06:11:33;100867.47;;;26.82;30.09
64967;BME280;51710;38.732;-121.358;2022-09-12T06:14:00;100868.56;;;26.81;30.02
64967;BME280;51710;38.732;-121.358;2022-09-12T06:16:28;100867.16;;;26.79;29.99
64967;BME280;51710;38.732;-121.358;2022-09-12T06:19:03;100866.31;;;26.78;30.07
64967;BME280;51710;38.732;-121.358;2022-09-12T06:21:30;100864.69;;;26.77;30.06
64967;BME280;51710;38.732;-121.358;2022-09-12T06:23:57;100864.97;;;26.76;30.07
64967;BME280;51710;38.732;-121.358;2022-09-12T06:26:24;100876.16;;;26.74;29.97
64967;BME280;51710;38.732;-121.358;2022-09-12T06:28:52;100866.56;;;26.72;30.08
64967;BME280;51710;38.732;-121.358;2022-09-12T06:31:24;100860.50;;;26.70;30.19
64967;BME280;51710;38.732;-121.358;2022-09-12T06:33:52;100865.19;;;26.69;30.08
64967;BME280;51710;38.732;-121.358;2022-09-12T06:36:22;100870.88;;;26.67;30.62
64967;BME280;51710;38.732;-121.358;2022-09-12T06:38:54;100873.59;;;26.67;30.33
64967;BME280;51710;38.732;-121.358;2022-09-12T06:41:22;100870.88;;;26.67;30.26
64967;BME280;51710;38.732;-121.358;2022-09-12T06:43:49;100876.25;;;26.62;30.69
64967;BME280;51710;38.732;-121.358;2022-09-12T06:46:16;100876.75;;;26.54;30.79
64967;BME280;51710;38.732;-121.358;2022-09-12T06:48:42;100870.13;;;26.50;30.88
64967;BME280;51710;38.732;-121.358;2022-09-12T06:51:14;100869.56;;;26.48;30.89
64967;BME280;51710;38.732;-121.358;2022-09-12T06:53:42;100872.81;;;26.45;30.99
64967;BME280;51710;38.732;-121.358;2022-09-12T06:56:12;100869.53;;;26.43;31.22
64967;BME280;51710;38.732;-121.358;2022-09-12T06:58:39;100866.78;;;26.43;30.87
64967;BME280;51710;38.732;-121.358;2022-09-12T07:01:14;100871.19;;;26.44;31.04
64967;BME280;51710;38.732;-121.358;2022-09-12T07:03:42;100864.88;;;26.44;31.36
64967;BME280;51710;38.732;-121.358;2022-09-12T07:06:12;100862.41;;;26.42;31.13
64967;BME280;51710;38.732;-121.358;2022-09-12T07:08:39;100852.00;;;26.39;31.18
64967;BME280;51710;38.732;-121.358;2022-09-12T07:11:15;100858.53;;;26.38;31.55
64967;BME280;51710;38.732;-121.358;2022-09-12T07:13:43;100865.09;;;26.37;31.74
64967;BME280;51710;38.732;-121.358;2022-09-12T07:16:11;100856.34;;;26.35;31.96
64967;BME280;51710;38.732;-121.358;2022-09-12T07:18:38;100862.06;;;26.34;31.98
64967;BME280;51710;38.732;-121.358;2022-09-12T07:21:07;100850.56;;;26.32;31.92
64967;BME280;51710;38.732;-121.358;2022-09-12T07:23:35;100857.34;;;26.29;32.18
64967;BME280;51710;38.732;-121.358;2022-09-12T07:26:01;100854.06;;;26.27;32.17
64967;BME280;51710;38.732;-121.358;2022-09-12T07:28:29;100854.06;;;26.27;32.21
64967;BME280;51710;38.732;-121.358;2022-09-12T07:30:57;100843.16;;;26.27;32.40
64967;BME280;51710;38.732;-121.358;2022-09-12T07:33:26;100854.88;;;26.28;32.30
64967;BME280;51710;38.732;-121.358;2022-09-12T07:35:53;100845.63;;;26.29;32.27
64967;BME280;51710;38.732;-121.358;2022-09-12T07:38:22;100843.16;;;26.27;32.53
64967;BME280;51710;38.732;-121.358;2022-09-12T07:40:49;100842.31;;;26.27;32.16
64967;BME280;51710;38.732;-121.358;2022-09-12T07:43:15;100844.22;;;26.26;32.39
64967;BME280;51710;38.732;-121.358;2022-09-12T07:45:41;100836.81;;;26.22;32.81
64967;BME280;51710;38.732;-121.358;2022-09-12T07:48:08;100840.03;;;26.19;33.17
64967;BME280;51710;38.732;-121.358;2022-09-12T07:50:35;100838.91;;;26.15;33.21
64967;BME280;51710;38.732;-121.358;2022-09-12T07:53:02;100826.84;;;26.11;33.18
64967;BME280;51710;38.732;-121.358;2022-09-12T07:55:29;100844.53;;;26.08;33.00
64967;BME280;51710;38.732;-121.358;2022-09-12T07:57:56;100840.44;;;26.06;32.82
64967;BME280;51710;38.732;-121.358;2022-09-12T08:00:22;100845.56;;;26.02;33.08
64967;BME280;51710;38.732;-121.358;2022-09-12T08:02:52;100837.88;;;25.99;33.44
64967;BME280;51710;38.732;-121.358;2022-09-12T08:05:19;100837.81;;;25.94;33.57
64967;BME280;51710;38.732;-121.358;2022-09-12T08:07:46;100833.38;;;25.88;33.96
64967;BME280;51710;38.732;-121.358;2022-09-12T08:10:12;100841.50;;;25.83;33.76
64967;BME280;51710;38.732;-121.358;2022-09-12T08:12:38;100836.56;;;25.80;33.93
64967;BME280;51710;38.732;-121.358;2022-09-12T08:15:05;100838.72;;;25.78;34.18
64967;BME280;51710;38.732;-121.358;2022-09-12T08:17:32;100839.78;;;25.77;33.87
64967;BME280;51710;38.732;-121.358;2022-09-12T08:19:58;100837.03;;;25.77;34.16
64967;BME280;51710;38.732;-121.358;2022-09-12T08:22:24;100837.03;;;25.77;34.24
64967;BME280;51710;38.732;-121.358;2022-09-12T08:24:51;100832.69;;;25.76;34.05
64967;BME280;51710;38.732;-121.358;2022-09-12T08:27:17;100835.41;;;25.76;33.81
64967;BME280;51710;38.732;-121.358;2022-09-12T08:29:44;100824.16;;;25.73;34.58
64967;BME280;51710;38.732;-121.358;2022-09-12T08:32:10;100828.22;;;25.70;34.58
64967;BME280;51710;38.732;-121.358;2022-09-12T08:34:36;100815.66;;;25.69;34.73
64967;BME280;51710;38.732;-121.358;2022-09-12T08:37:03;100830.63;;;25.67;34.19
64967;BME280;51710;38.732;-121.358;2022-09-12T08:39:30;100827.09;;;25.66;34.44
64967;BME280;51710;38.732;-121.358;2022-09-12T08:42:02;100816.94;;;25.62;34.65
64967;BME280;51710;38.732;-121.358;2022-09-12T08:47:10;100814.66;;;25.53;34.15
64967;BME280;51710;38.732;-121.358;2022-09-12T08:54:53;100812.03;;;25.42;35.26
64967;BME280;51710;38.732;-121.358;2022-09-12T08:57:21;100802.03;;;25.31;35.72
64967;BME280;51710;38.732;-121.358;2022-09-12T08:59:50;100801.66;;;25.22;35.81
64967;BME280;51710;38.732;-121.358;2022-09-12T09:02:24;100801.81;;;25.16;35.59
64967;BME280;51710;38.732;-121.358;2022-09-12T09:05:02;100804.13;;;25.07;35.78
64967;BME280;51710;38.732;-121.358;2022-09-12T09:07:48;100798.78;;;24.96;36.05
64967;BME280;51710;38.732;-121.358;2022-09-12T09:13:21;100802.50;;;24.73;36.16
64967;BME280;51710;38.732;-121.358;2022-09-12T09:16:24;100802.06;;;24.65;36.74
64967;BME280;51710;38.732;-121.358;2022-09-12T09:18:54;100801.50;;;24.63;37.27
64967;BME280;51710;38.732;-121.358;2022-09-12T09:21:30;100802.00;;;24.60;37.36
64967;BME280;51710;38.732;-121.358;2022-09-12T09:24:05;100800.31;;;24.59;37.12
64967;BME280;51710;38.732;-121.358;2022-09-12T09:26:57;100798.69;;;24.58;36.99
64967;BME280;51710;38.732;-121.358;2022-09-12T09:29:29;100794.06;;;24.58;37.48
64967;BME280;51710;38.732;-121.358;2022-09-12T09:31:59;100795.97;;;24.58;37.28
64967;BME280;51710;38.732;-121.358;2022-09-12T09:34:29;100802.78;;;24.60;38.00
64967;BME280;51710;38.732;-121.358;2022-09-12T09:37:08;100799.19;;;24.55;38.23
64967;BME280;51710;38.732;-121.358;2022-09-12T09:42:40;100800.16;;;24.32;38.56
64967;BME280;51710;38.732;-121.358;2022-09-12T09:45:16;100794.50;;;24.22;39.55
64967;BME280;51710;38.732;-121.358;2022-09-12T09:48:18;100792.69;;;24.11;38.92
64967;BME280;51710;38.732;-121.358;2022-09-12T09:50:44;100783.59;;;24.05;38.79
64967;BME280;51710;38.732;-121.358;2022-09-12T09:56:02;100787.47;;;24.09;38.63
64967;BME280;51710;38.732;-121.358;2022-09-12T09:58:31;100788.78;;;24.07;38.94
64967;BME280;51710;38.732;-121.358;2022-09-12T10:01:04;100781.91;;;24.04;39.06
64967;BME280;51710;38.732;-121.358;2022-09-12T10:03:37;100788.19;;;24.05;39.38
64967;BME280;51710;38.732;-121.358;2022-09-12T10:06:22;100784.97;;;24.08;38.88
64967;BME280;51710;38.732;-121.358;2022-09-12T10:08:50;100774.22;;;24.13;38.59
64967;BME280;51710;38.732;-121.358;2022-09-12T10:11:21;100774.56;;;24.16;38.46
64967;BME280;51710;38.732;-121.358;2022-09-12T10:16:51;100779.00;;;24.22;38.40
64967;BME280;51710;38.732;-121.358;2022-09-12T10:19:24;100781.03;;;24.15;38.93
64967;BME280;51710;38.732;-121.358;2022-09-12T10:21:58;100782.25;;;24.08;39.23
64967;BME280;51710;38.732;-121.358;2022-09-12T10:24:39;100776.47;;;24.04;38.92
64967;BME280;51710;38.732;-121.358;2022-09-12T10:27:20;100777.06;;;24.06;38.54
64967;BME280;51710;38.732;-121.358;2022-09-12T10:30:17;100773.88;;;24.09;38.23
64967;BME280;51710;38.732;-121.358;2022-09-12T10:32:49;100779.88;;;24.11;38.89
64967;BME280;51710;38.732;-121.358;2022-09-12T10:35:24;100772.78;;;24.10;38.75
64967;BME280;51710;38.732;-121.358;2022-09-12T10:38:05;100769.47;;;24.08;38.72
64967;BME280;51710;38.732;-121.358;2022-09-12T10:40:38;100780.38;;;24.08;38.77
64967;BME280;51710;38.732;-121.358;2022-09-12T10:43:17;100781.22;;;24.09;38.99
64967;BME280;51710;38.732;-121.358;2022-09-12T10:45:49;100783.94;;;24.09;39.16
64967;BME280;51710;38.732;-121.358;2022-09-12T10:48:29;100776.25;;;24.06;39.24
64967;BME280;51710;38.732;-121.358;2022-09-12T10:50:57;100789.16;;;23.99;39.51
64967;BME280;51710;38.732;-121.358;2022-09-12T11:04:30;100789.78;;;23.89;39.03
64967;BME280;51710;38.732;-121.358;2022-09-12T11:21:12;100780.81;;;23.77;39.01
64967;BME280;51710;38.732;-121.358;2022-09-12T11:23:56;100772.16;;;23.80;38.75
64967;BME280;51710;38.732;-121.358;2022-09-12T11:26:52;100771.72;;;23.83;38.92
64967;BME280;51710;38.732;-121.358;2022-09-12T11:29:40;100769.00;;;23.83;39.35
64967;BME280;51710;38.732;-121.358;2022-09-12T11:38:14;100769.63;;;23.90;39.12
64967;BME280;51710;38.732;-121.358;2022-09-12T11:51:38;100778.16;;;24.05;38.35
64967;BME280;51710;38.732;-121.358;2022-09-12T11:56:34;100771.16;;;24.09;38.10
64967;BME280;51710;38.732;-121.358;2022-09-12T11:59:11;100764.63;;;24.10;38.22
64967;BME280;51710;38.732;-121.358;2022-09-12T12:01:41;100771.72;;;24.11;37.96
64967;BME280;51710;38.732;-121.358;2022-09-12T12:04:14;100755.38;;;24.11;37.79
64967;BME280;51710;38.732;-121.358;2022-09-12T12:06:54;100768.78;;;24.13;37.68
64967;BME280;51710;38.732;-121.358;2022-09-12T12:09:22;100759.78;;;24.12;37.77
64967;BME280;51710;38.732;-121.358;2022-09-12T12:11:52;100764.97;;;24.14;37.46
64967;BME280;51710;38.732;-121.358;2022-09-12T12:17:00;100764.47;;;24.17;37.26
64967;BME280;51710;38.732;-121.358;2022-09-12T12:19:34;100758.22;;;24.16;37.27
64967;BME280;51710;38.732;-121.358;2022-09-12T12:22:15;100754.41;;;24.17;36.91
64967;BME280;51710;38.732;-121.358;2022-09-12T12:25:01;100748.97;;;24.17;37.04
64967;BME280;51710;38.732;-121.358;2022-09-12T12:27:50;100747.88;;;24.18;37.00
64967;BME280;51710;38.732;-121.358;2022-09-12T12:38:04;100741.56;;;24.13;37.10
64967;BME280;51710;38.732;-121.358;2022-09-12T12:40:31;100747.78;;;24.13;36.97
64967;BME280;51710;38.732;-121.358;2022-09-12T12:43:04;100741.75;;;24.11;37.06
64967;BME280;51710;38.732;-121.358;2022-09-12T12:45:59;100743.94;;;24.09;37.16
64967;BME280;51710;38.732;-121.358;2022-09-12T12:48:29;100742.25;;;24.08;37.08
64967;BME280;51710;38.732;-121.358;2022-09-12T12:51:25;100743.34;;;24.07;37.11
64967;BME280;51710;38.732;-121.358;2022-09-12T12:53:53;100740.88;;;24.06;37.36
64967;BME280;51710;38.732;-121.358;2022-09-12T12:56:32;100744.66;;;24.05;37.61
64967;BME280;51710;38.732;-121.358;2022-09-12T12:59:02;100746.31;;;24.06;37.75
64967;BME280;51710;38.732;-121.358;2022-09-12T13:01:31;100743.59;;;24.06;37.85
64967;BME280;51710;38.732;-121.358;2022-09-12T13:04:15;100738.38;;;24.04;38.08
64967;BME280;51710;38.732;-121.358;2022-09-12T13:07:06;100747.63;;;24.03;37.94
64967;BME280;51710;38.732;-121.358;2022-09-12T13:09:37;100745.97;;;24.02;37.99
64967;BME280;51710;38.732;-121.358;2022-09-12T13:12:07;100739.97;;;24.00;38.19
64967;BME280;51710;38.732;-121.358;2022-09-12T13:14:57;100744.56;;;24.00;38.37
64967;BME280;51710;38.732;-121.358;2022-09-12T13:17:43;100747.75;;;23.97;38.48
64967;BME280;51710;38.732;-121.358;2022-09-12T13:22:41;100747.88;;;23.90;38.81
64967;BME280;51710;38.732;-121.358;2022-09-12T13:25:22;100752.50;;;23.90;38.94
64967;BME280;51710;38.732;-121.358;2022-09-12T13:30:38;100749.53;;;23.91;38.86
64967;BME280;51710;38.732;-121.358;2022-09-12T13:33:40;100755.81;;;23.92;38.85
64967;BME280;51710;38.732;-121.358;2022-09-12T13:44:20;100761.47;;;23.90;38.77
64967;BME280;51710;38.732;-121.358;2022-09-12T13:46:48;100757.13;;;23.89;38.93
64967;BME280;51710;38.732;-121.358;2022-09-12T13:49:36;100765.28;;;23.89;38.94
64967;BME280;51710;38.732;-121.358;2022-09-12T13:52:07;100761.97;;;23.87;38.99
64967;BME280;51710;38.732;-121.358;2022-09-12T13:54:37;100768.50;;;23.86;39.25
64967;BME280;51710;38.732;-121.358;2022-09-12T13:57:04;100766.81;;;23.85;39.53
64967;BME280;51710;38.732;-121.358;2022-09-12T13:59:38;100778.19;;;23.82;39.46
64967;BME280;51710;38.732;-121.358;2022-09-12T14:02:19;100776.06;;;23.84;39.70
64967;BME280;51710;38.732;-121.358;2022-09-12T14:04:51;100770.13;;;23.87;39.73
64967;BME280;51710;38.732;-121.358;2022-09-12T14:07:56;100776.25;;;23.94;39.41
64967;BME280;51710;38.732;-121.358;2022-09-12T14:10:43;100779.94;;;24.00;39.67
64967;BME280;51710;38.732;-121.358;2022-09-12T14:13:32;100782.41;;;24.01;39.74
64967;BME280;51710;38.732;-121.358;2022-09-12T14:15:59;100789.53;;;24.02;39.59
64967;BME280;51710;38.732;-121.358;2022-09-12T14:18:30;100786.56;;;24.04;39.65
64967;BME280;51710;38.732;-121.358;2022-09-12T14:21:19;100784.63;;;24.04;39.72
64967;BME280;51710;38.732;-121.358;2022-09-12T14:23:47;100789.63;;;24.07;39.81
64967;BME280;51710;38.732;-121.358;2022-09-12T14:26:15;100782.84;;;24.10;39.79
64967;BME280;51710;38.732;-121.358;2022-09-12T14:28:46;100781.78;;;24.11;40.24
64967;BME280;51710;38.732;-121.358;2022-09-12T14:31:28;100784.25;;;24.12;40.60
64967;BME280;51710;38.732;-121.358;2022-09-12T14:34:18;100784.25;;;24.12;40.46
64967;BME280;51710;38.732;-121.358;2022-09-12T14:36:46;100778.81;;;24.12;40.69
64967;BME280;51710;38.732;-121.358;2022-09-12T14:41:46;100788.38;;;24.15;40.92
64967;BME280;51710;38.732;-121.358;2022-09-12T14:44:19;100785.91;;;24.13;40.64
64967;BME280;51710;38.732;-121.358;2022-09-12T14:46:48;100790.88;;;24.16;41.04
64967;BME280;51710;38.732;-121.358;2022-09-12T14:49:34;100797.97;;;24.17;40.86
64967;BME280;51710;38.732;-121.358;2022-09-12T14:52:07;100797.47;;;24.20;41.32
64967;BME280;51710;38.732;-121.358;2022-09-12T14:54:53;100800.78;;;24.22;41.13
64967;BME280;51710;38.732;-121.358;2022-09-12T14:57:39;100790.47;;;24.24;41.07
64967;BME280;51710;38.732;-121.358;2022-09-12T15:00:15;100792.69;;;24.27;41.49
64967;BME280;51710;38.732;-121.358;2022-09-12T15:02:45;100797.66;;;24.30;41.66
64967;BME280;51710;38.732;-121.358;2022-09-12T15:07:42;100796.69;;;24.36;41.54